KRYY

Cobb County International-McCollum Field Airport

Atlanta, Georgia, USA
KRYY 221513Z 2215/2312 10011G25KT P6SM BKN030 FM221900 11010G16KT P6SM BKN035 FM230100 08008KT P6SM OVC025 PROB30 2302/2308 4SM -RA OVC015 FM230800 10007KT P6SM -RA OVC008
Issued Valid From Valid To
Jan-22 @ 15:13 UTC
(2 hours ago)
Jan-22 @ 15:00 UTC
(2 hours ago)
Jan-23 @ 12:00 UTC
(in 19 hours)
Jan-22 @ 15:00 to Jan-22 @ 19:00
KRYY 221513Z 2215/2312 10011G25KT P6SM BKN030
Wind Visibility Clouds
100° at 11 knots
 Gusting to 25 knots
Greater than 6 miles
  • Broken at 3,000' AGL
From Jan-22 @ 19:00 to Jan-23 @ 01:00
FM221900 11010G16KT P6SM BKN035
Wind Visibility Clouds
110° at 10 knots
 Gusting to 16 knots
Greater than 6 miles
  • Broken at 3,500' AGL
From Jan-23 @ 01:00 to Jan-23 @ 08:00
FM230100 08008KT P6SM OVC025
Wind Visibility Clouds
80° at 8 knots Greater than 6 miles
  • Overcast at 2,500' AGL
Probable  (Probability 30%) Jan-23 @ 02:00 to Jan-23 @ 08:00
PROB30 2302/2308 4SM -RA OVC015
Visibility Clouds Conditions
4 miles
  • Overcast at 1,500' AGL
  • Light Rain
From Jan-23 @ 08:00 to Jan-23 @ 12:00
FM230800 10007KT P6SM -RA OVC008
Wind Visibility Clouds Conditions
100° at 7 knots Greater than 6 miles
  • Overcast at 800' AGL
  • Light Rain
KRYY 221513Z 2215/2312 10011G25KT P6SM BKN030 FM221900 11010G16KT P6SM BKN035 FM230100 08008KT P6SM OVC025 PROB30 2302/2308 4SM -RA OVC015 FM230800 10007KT P6SM -RA OVC008
Issued Jan-22 @ 15:13 UTC
(2 hours ago)
Valid From Jan-22 @ 15:00 UTC
(2 hours ago)
Valid To Jan-23 @ 12:00 UTC
(in 19 hours)
Jan-22 @ 15:00 - Jan-22 @ 19:00
Wind Visibility
100° at 11 knots
 Gusting to 25 knots
Greater than 6 miles
Clouds
  • Broken at 3,000' AGL
From Jan-22 @ 19:00 - Jan-23 @ 01:00
Wind Visibility
110° at 10 knots
 Gusting to 16 knots
Greater than 6 miles
Clouds
  • Broken at 3,500' AGL
From Jan-23 @ 01:00 - Jan-23 @ 08:00
Wind Visibility
80° at 8 knots Greater than 6 miles
Clouds
  • Overcast at 2,500' AGL
Probability 30% Probable Jan-23 @ 02:00 - Jan-23 @ 08:00
Clouds
  • Overcast at 1,500' AGL
Conditions
  • Light Rain
From Jan-23 @ 08:00 - Jan-23 @ 12:00
Wind Visibility
100° at 7 knots Greater than 6 miles
Clouds
  • Overcast at 800' AGL
Conditions
  • Light Rain